createdAt,value
2017-08-27T09:28:57.909Z,644
2017-08-27T09:29:26.342Z,676
2017-08-27T09:29:55.196Z,708
2017-08-27T09:30:23.761Z,740
2017-08-27T09:30:52.103Z,776
2017-08-27T09:31:20.387Z,816
2017-08-27T09:31:48.666Z,852
2017-08-27T09:32:16.994Z,888
2017-08-27T09:32:45.265Z,928
2017-08-27T09:33:13.649Z,972
2017-08-27T09:33:41.872Z,1016
2017-08-27T09:35:04.491Z,1848
2017-08-27T09:35:32.793Z,2380
2017-08-27T09:36:01.109Z,2620
2017-08-27T09:36:29.310Z,2632
2017-08-27T09:36:57.542Z,2956
2017-08-27T09:37:25.831Z,3212
2017-08-27T09:37:54.104Z,3660
2017-08-27T09:38:22.179Z,4012
2017-08-27T09:38:50.548Z,4096
2017-08-27T09:39:18.895Z,4472
2017-08-27T09:39:47.228Z,4956
2017-08-27T09:40:58.597Z,5936
2017-08-27T09:41:26.899Z,6308
2017-08-27T09:41:55.114Z,6888
2017-08-27T09:42:23.415Z,7424
2017-08-27T09:42:51.751Z,7744
2017-08-27T09:43:20.037Z,8032
2017-08-27T09:43:48.315Z,8352
2017-08-27T09:44:16.687Z,8736
2017-08-27T09:44:45.005Z,9152
2017-08-27T09:45:13.257Z,8288
2017-08-27T09:45:41.584Z,7236
2017-08-27T09:46:52.851Z,4984
2017-08-27T09:47:21.157Z,4172
2017-08-27T09:47:49.376Z,3484
2017-08-27T09:48:17.583Z,2864
2017-08-27T09:48:45.815Z,2548
2017-08-27T09:49:14.003Z,2572
2017-08-27T09:49:42.284Z,2608
2017-08-27T09:50:10.657Z,2644
2017-08-27T09:50:38.935Z,2680
2017-08-27T09:51:07.188Z,2716
2017-08-27T09:51:35.516Z,2760
2017-08-27T09:52:46.791Z,2844
2017-08-27T09:53:14.897Z,2880
2017-08-27T09:53:43.116Z,2912
2017-08-27T09:54:11.427Z,2944
2017-08-27T09:54:39.748Z,2980
2017-08-27T09:55:08.038Z,3020
2017-08-27T09:55:36.320Z,3052
2017-08-27T09:56:04.687Z,3080
2017-08-27T09:56:33.057Z,3112
2017-08-27T09:57:01.404Z,3144
2017-08-27T09:57:29.730Z,3176
2017-08-27T09:58:41.097Z,3248
2017-08-27T09:59:09.305Z,3280
2017-08-27T09:59:37.425Z,3304
2017-08-27T10:00:05.638Z,3328
2017-08-27T10:00:33.971Z,3356
2017-08-27T10:01:02.164Z,3388
2017-08-27T10:01:30.444Z,3412
2017-08-27T10:01:58.813Z,3440
2017-08-27T10:02:27.084Z,3472
2017-08-27T10:02:55.438Z,3496
2017-08-27T10:03:23.666Z,3516
2017-08-27T10:04:34.941Z,3576
2017-08-27T10:05:03.251Z,3596
2017-08-27T10:05:31.568Z,3620
2017-08-27T10:05:59.775Z,3648
2017-08-27T10:06:28.113Z,3668
2017-08-27T10:06:56.401Z,3696
2017-08-27T10:07:24.586Z,3716
2017-08-27T10:07:52.963Z,3744
2017-08-27T10:08:21.240Z,3764
2017-08-27T10:08:49.587Z,3780
2017-08-27T10:09:17.914Z,3800
2017-08-27T10:10:29.283Z,3848
2017-08-27T10:10:57.489Z,3868
2017-08-27T10:11:25.704Z,3892
2017-08-27T10:11:54.015Z,3908
2017-08-27T10:12:22.353Z,3928
2017-08-27T10:12:50.641Z,3944
2017-08-27T10:13:18.913Z,3956
2017-08-27T10:13:47.182Z,3972
2017-08-27T10:14:15.560Z,3988
2017-08-27T10:14:43.908Z,4004
2017-08-27T10:15:12.238Z,4020
2017-08-27T10:16:23.613Z,4068
2017-08-27T10:16:51.921Z,4080
2017-08-27T10:17:20.141Z,4100
2017-08-27T10:17:48.350Z,4112
2017-08-27T10:18:16.681Z,4128
2017-08-27T10:18:44.970Z,4140
2017-08-27T10:19:13.243Z,4160
2017-08-27T10:19:41.619Z,4176
2017-08-27T10:20:09.898Z,4176
2017-08-27T10:20:38.252Z,4188
2017-08-27T10:21:06.484Z,4204
2017-08-27T10:22:17.860Z,4240
2017-08-27T10:22:46.168Z,4256
2017-08-27T10:23:14.381Z,4276
2017-08-27T10:23:42.693Z,4284
2017-08-27T10:24:10.928Z,4296
2017-08-27T10:24:39.110Z,4304
2017-08-27T10:25:07.392Z,4316
2017-08-27T10:25:35.769Z,4328
2017-08-27T10:26:04.145Z,4336
2017-08-27T10:26:32.495Z,4344
2017-08-27T10:27:00.720Z,4352
2017-08-27T10:28:12.094Z,4376
2017-08-27T10:28:40.400Z,4388
2017-08-27T10:29:08.517Z,4396
2017-08-27T10:29:36.724Z,4412
2017-08-27T10:30:05.055Z,4424
2017-08-27T10:30:33.148Z,4436
2017-08-27T10:31:01.332Z,4448
2017-08-27T10:31:29.703Z,4456
2017-08-27T10:31:58.081Z,4468
2017-08-27T10:32:26.433Z,4476
2017-08-27T10:32:54.564Z,4484
2017-08-27T10:34:05.936Z,4512
2017-08-27T10:34:34.246Z,4524
2017-08-27T10:35:02.563Z,4540
2017-08-27T10:35:30.774Z,4552
2017-08-27T10:35:59.104Z,4556
2017-08-27T10:36:27.299Z,4572
2017-08-27T10:36:55.381Z,4584
2017-08-27T10:37:23.779Z,4588
2017-08-27T10:37:52.125Z,4596
2017-08-27T10:38:20.478Z,4608
2017-08-27T10:38:48.703Z,4620
2017-08-27T10:39:59.972Z,4632
2017-08-27T10:40:28.279Z,4636
2017-08-27T10:40:56.399Z,4644
2017-08-27T10:41:24.708Z,4652
2017-08-27T10:41:53.045Z,4652
2017-08-27T10:42:21.331Z,4664
2017-08-27T10:42:49.610Z,4676
2017-08-27T10:43:17.980Z,4680
2017-08-27T10:43:46.249Z,4688
2017-08-27T10:44:14.504Z,4700
2017-08-27T10:44:42.832Z,4708
2017-08-27T10:45:54.206Z,4728
2017-08-27T10:46:22.519Z,4740
2017-08-27T10:46:50.737Z,4744
2017-08-27T10:47:19.051Z,4752
2017-08-27T10:47:47.384Z,4760
2017-08-27T10:48:15.674Z,4764
2017-08-27T10:48:43.956Z,4772
2017-08-27T10:49:12.226Z,4776
2017-08-27T10:49:40.592Z,4788
2017-08-27T10:50:08.844Z,4796
2017-08-27T10:50:37.072Z,4804
2017-08-27T10:51:48.444Z,4820
2017-08-27T10:52:16.756Z,4824
2017-08-27T10:52:44.872Z,4836
2017-08-27T10:53:12.981Z,4844
2017-08-27T10:53:41.316Z,4852
2017-08-27T10:54:09.503Z,4864
2017-08-27T10:54:37.586Z,4876
2017-08-27T10:55:05.956Z,4880
2017-08-27T10:55:34.227Z,4888
2017-08-27T10:56:02.576Z,4896
2017-08-27T10:56:30.615Z,4900
2017-08-27T10:57:41.990Z,4904
2017-08-27T10:58:10.197Z,4908
2017-08-27T10:58:38.416Z,4912
2017-08-27T10:59:06.632Z,4920
2017-08-27T10:59:34.771Z,4928
2017-08-27T11:00:02.860Z,4932
2017-08-27T11:00:31.043Z,4928
2017-08-27T11:00:59.212Z,4936
2017-08-27T11:01:27.484Z,4940
2017-08-27T11:01:55.835Z,4944
2017-08-27T11:02:23.965Z,4952
2017-08-27T11:03:35.340Z,4980
2017-08-27T11:04:03.443Z,4984
2017-08-27T11:04:31.663Z,4996
2017-08-27T11:04:59.971Z,5004
2017-08-27T11:05:28.307Z,5016
2017-08-27T11:05:56.493Z,5024
2017-08-27T11:06:24.775Z,5036
2017-08-27T11:06:53.041Z,5044
2017-08-27T11:07:21.314Z,5052
2017-08-27T11:07:49.668Z,5060
2017-08-27T11:08:17.891Z,5060
2017-08-27T11:09:29.265Z,5068
2017-08-27T11:09:57.576Z,5068
2017-08-27T11:10:25.895Z,5076
2017-08-27T11:10:54.206Z,5080
2017-08-27T11:11:22.343Z,5084
2017-08-27T11:11:50.530Z,5088
2017-08-27T11:12:18.810Z,5096
2017-08-27T11:12:47.184Z,5100
2017-08-27T11:13:15.359Z,5104
2017-08-27T11:13:43.615Z,5108
2017-08-27T11:14:11.945Z,5116
2017-08-27T11:15:23.315Z,5124
2017-08-27T11:15:51.624Z,5120
2017-08-27T11:16:19.946Z,5120
2017-08-27T11:16:48.257Z,5116
2017-08-27T11:17:16.589Z,5120
2017-08-27T11:17:44.675Z,5120
2017-08-27T11:18:12.853Z,5128
2017-08-27T11:18:41.228Z,5136
2017-08-27T11:19:09.497Z,5144
2017-08-27T11:19:37.843Z,5152
2017-08-27T11:20:06.073Z,5160
2017-08-27T11:21:17.445Z,5164
2017-08-27T11:21:45.765Z,5160
2017-08-27T11:22:13.980Z,5160
2017-08-27T11:22:42.294Z,5156
2017-08-27T11:23:10.522Z,5152
2017-08-27T11:23:38.712Z,5148
2017-08-27T11:24:06.996Z,5144
2017-08-27T11:24:35.363Z,5144
2017-08-27T11:25:03.737Z,5144
2017-08-27T11:25:32.083Z,5148
2017-08-27T11:26:00.414Z,5156
2017-08-27T11:27:11.692Z,5172
2017-08-27T11:27:39.899Z,5172
2017-08-27T11:28:08.117Z,5188
2017-08-27T11:28:36.227Z,5188
2017-08-27T11:29:04.565Z,5192
2017-08-27T11:29:32.854Z,5200
2017-08-27T11:30:01.131Z,5204
2017-08-27T11:30:29.502Z,5208
2017-08-27T11:30:57.774Z,5208
2017-08-27T11:31:26.126Z,5204
2017-08-27T11:31:54.453Z,5204
2017-08-27T11:33:05.725Z,5204
2017-08-27T11:33:33.937Z,5196
2017-08-27T11:34:02.159Z,5200
2017-08-27T11:34:30.367Z,5192
2017-08-27T11:34:58.500Z,5192
2017-08-27T11:35:26.592Z,5188
2017-08-27T11:35:54.873Z,5192
2017-08-27T11:36:23.139Z,5188
2017-08-27T11:36:51.313Z,5188
2017-08-27T11:37:19.663Z,5188
2017-08-27T11:37:47.893Z,5184
2017-08-27T11:38:59.264Z,5176
2017-08-27T11:39:27.476Z,5172
2017-08-27T11:39:55.698Z,5172
2017-08-27T11:40:23.901Z,5172
2017-08-27T11:40:52.233Z,5164
2017-08-27T11:41:20.524Z,5164
2017-08-27T11:41:48.802Z,5168
2017-08-27T11:42:17.168Z,5164
2017-08-27T11:42:45.539Z,5156
2017-08-27T11:43:13.887Z,5156
2017-08-27T11:43:42.214Z,5156
2017-08-27T11:44:53.577Z,5148
2017-08-27T11:45:22.210Z,5140
2017-08-27T11:45:50.532Z,5136
2017-08-27T11:46:18.833Z,5128
2017-08-27T11:46:47.165Z,5116
2017-08-27T11:47:15.350Z,5108
2017-08-27T11:47:43.531Z,5100
2017-08-27T11:48:11.900Z,5096
2017-08-27T11:48:40.280Z,5092
2017-08-27T11:49:08.624Z,5084
2017-08-27T11:49:36.952Z,5084
2017-08-27T11:50:48.327Z,5076
2017-08-27T11:51:16.638Z,5072
2017-08-27T11:51:44.759Z,5076
2017-08-27T11:52:13.066Z,5068
2017-08-27T11:52:41.404Z,5064
2017-08-27T11:53:09.693Z,5056
2017-08-27T11:53:37.876Z,5052
2017-08-27T11:54:06.252Z,5048
2017-08-27T11:54:34.620Z,5048
2017-08-27T11:55:02.969Z,5044
2017-08-27T11:55:31.300Z,5040
2017-08-27T11:56:42.670Z,5036
2017-08-27T11:57:10.976Z,5040
2017-08-27T11:57:39.296Z,5040
2017-08-27T11:58:07.404Z,5036
2017-08-27T11:58:35.742Z,5032
2017-08-27T11:59:04.027Z,5032
2017-08-27T11:59:32.207Z,5036
2017-08-27T12:00:00.579Z,5032
2017-08-27T12:00:28.852Z,5028
2017-08-27T12:00:57.199Z,5020
2017-08-27T12:01:25.429Z,5016
2017-08-27T12:02:36.825Z,5004
2017-08-27T12:03:05.116Z,4996
2017-08-27T12:03:33.438Z,4988
2017-08-27T12:04:01.549Z,4984
2017-08-27T12:04:29.788Z,4980
2017-08-27T12:04:58.078Z,4980
2017-08-27T12:05:26.357Z,4976
2017-08-27T12:05:54.528Z,4980
2017-08-27T12:06:22.894Z,4976
2017-08-27T12:06:51.146Z,4976
2017-08-27T12:07:19.377Z,4976
2017-08-27T12:08:30.740Z,4968
2017-08-27T12:08:58.938Z,4960
2017-08-27T12:09:27.142Z,4956
2017-08-27T12:09:55.451Z,4948
2017-08-27T12:10:23.591Z,4944
2017-08-27T12:10:51.776Z,4928
2017-08-27T12:11:19.956Z,4924
2017-08-27T12:11:48.229Z,4924
2017-08-27T12:12:16.496Z,4920
2017-08-27T12:12:44.750Z,4916
2017-08-27T12:13:13.069Z,4912
2017-08-27T12:14:24.430Z,4908
2017-08-27T12:14:52.741Z,4904
2017-08-27T12:15:21.060Z,4904
2017-08-27T12:15:49.269Z,4912
2017-08-27T12:16:17.604Z,4908
2017-08-27T12:16:45.893Z,4912
2017-08-27T12:17:14.080Z,4920
2017-08-27T12:17:42.359Z,4920
2017-08-27T12:18:10.629Z,4920
2017-08-27T12:18:38.976Z,4924
2017-08-27T12:19:07.303Z,4916
2017-08-27T12:20:18.669Z,4916
2017-08-27T12:20:46.665Z,4924
2017-08-27T12:21:14.979Z,4920
2017-08-27T12:21:43.086Z,4920
2017-08-27T12:22:11.418Z,4920
2017-08-27T12:22:39.707Z,4924
2017-08-27T12:23:07.883Z,4924
2017-08-27T12:23:36.136Z,4920
2017-08-27T12:24:04.304Z,4924
2017-08-27T12:24:32.652Z,4924
2017-08-27T12:25:00.784Z,4924
2017-08-27T12:26:12.154Z,4916
2017-08-27T12:26:40.259Z,4912
2017-08-27T12:27:08.478Z,4912
2017-08-27T12:27:36.687Z,4908
2017-08-27T12:28:05.022Z,4904
2017-08-27T12:28:33.178Z,4904
2017-08-27T12:29:01.308Z,4900
2017-08-27T12:29:29.544Z,4896
2017-08-27T12:29:57.601Z,4892
2017-08-27T12:30:25.945Z,4884
2017-08-27T12:30:54.073Z,4872
2017-08-27T12:32:05.344Z,4880
2017-08-27T12:32:33.650Z,4876
2017-08-27T12:33:01.771Z,4876
2017-08-27T12:33:30.082Z,4872
2017-08-27T12:33:58.316Z,4876
2017-08-27T12:34:26.408Z,4872
2017-08-27T12:34:54.690Z,4876
2017-08-27T12:35:23.064Z,4872
2017-08-27T12:35:51.341Z,4872
2017-08-27T12:36:19.595Z,4876
2017-08-27T12:36:47.729Z,4876
2017-08-27T12:37:59.086Z,4880
2017-08-27T12:38:27.196Z,4880
2017-08-27T12:38:55.513Z,4884
2017-08-27T12:39:23.821Z,4888
2017-08-27T12:39:52.155Z,4892
2017-08-27T12:40:20.344Z,4888
2017-08-27T12:40:48.611Z,4880
2017-08-27T12:41:16.982Z,4872
2017-08-27T12:41:45.358Z,4868
2017-08-27T12:42:13.712Z,4868
2017-08-27T12:42:41.845Z,4868
2017-08-27T12:43:53.205Z,4860
2017-08-27T12:44:21.316Z,4856
2017-08-27T12:44:49.535Z,4848
2017-08-27T12:45:17.744Z,4836
2017-08-27T12:45:46.081Z,4832
2017-08-27T12:46:14.365Z,4828
2017-08-27T12:46:42.548Z,4816
2017-08-27T12:47:10.924Z,4816
2017-08-27T12:47:39.102Z,4816
2017-08-27T12:48:07.352Z,4816
2017-08-27T12:48:35.486Z,4808
2017-08-27T12:49:46.816Z,4800
2017-08-27T12:50:15.024Z,4796
2017-08-27T12:50:43.100Z,4792
2017-08-27T12:51:11.365Z,4784
2017-08-27T12:51:39.556Z,4780
2017-08-27T12:52:07.832Z,4776
2017-08-27T12:52:36.111Z,4776
2017-08-27T12:53:04.485Z,4776
2017-08-27T12:53:32.756Z,4768
2017-08-27T12:54:01.009Z,4768
2017-08-27T12:54:29.346Z,4764
2017-08-27T12:55:40.714Z,4756
2017-08-27T12:56:08.819Z,4756
2017-08-27T12:56:37.037Z,4756
2017-08-27T12:57:05.340Z,4752
2017-08-27T12:57:33.571Z,4748
2017-08-27T12:58:01.644Z,4744
2017-08-27T12:58:29.880Z,4740
2017-08-27T12:58:58.109Z,4736
2017-08-27T12:59:26.360Z,4732
2017-08-27T12:59:54.717Z,4728
2017-08-27T13:00:22.847Z,4728
2017-08-27T13:01:34.218Z,4716
2017-08-27T13:02:02.513Z,4716
2017-08-27T13:02:30.787Z,4716
2017-08-27T13:02:59.050Z,4720
2017-08-27T13:03:27.333Z,4716
2017-08-27T13:03:55.380Z,4712
2017-08-27T13:04:23.561Z,4704
2017-08-27T13:04:51.834Z,4700
2017-08-27T13:05:19.995Z,4696
2017-08-27T13:05:48.344Z,4696
2017-08-27T13:06:16.674Z,4696
2017-08-27T13:07:28.046Z,4696
2017-08-27T13:07:56.155Z,4696
2017-08-27T13:08:24.172Z,4692
2017-08-27T13:08:52.479Z,4692
2017-08-27T13:09:20.709Z,4696
2017-08-27T13:09:48.999Z,4692
2017-08-27T13:10:17.283Z,4688
2017-08-27T13:10:45.550Z,4684
2017-08-27T13:11:13.826Z,4684
2017-08-27T13:11:42.181Z,4680
2017-08-27T13:12:10.512Z,4676
2017-08-27T13:13:21.884Z,4676
2017-08-27T13:13:50.090Z,4668
2017-08-27T13:14:18.313Z,4660
2017-08-27T13:14:46.523Z,4652
2017-08-27T13:15:14.855Z,4648
2017-08-27T13:15:43.047Z,4648
2017-08-27T13:16:11.331Z,4644
2017-08-27T13:16:39.698Z,4640
2017-08-27T13:17:07.994Z,4636
2017-08-27T13:17:36.321Z,4636
2017-08-27T13:18:04.551Z,4632
2017-08-27T13:19:15.924Z,4624
2017-08-27T13:19:44.127Z,4620
2017-08-27T13:20:12.242Z,4604
2017-08-27T13:20:40.350Z,4600
2017-08-27T13:21:08.686Z,4588
2017-08-27T13:21:36.756Z,4580
2017-08-27T13:22:05.037Z,4568
2017-08-27T13:22:33.413Z,4564
2017-08-27T13:23:01.571Z,4560
2017-08-27T13:23:29.928Z,4556
2017-08-27T13:23:58.254Z,4544
2017-08-27T13:25:09.610Z,4520
2017-08-27T13:25:37.818Z,4512
2017-08-27T13:26:06.140Z,4504
2017-08-27T13:26:34.349Z,4492
2017-08-27T13:27:02.684Z,4480
2017-08-27T13:27:30.874Z,4464
2017-08-27T13:27:58.958Z,4460
2017-08-27T13:28:27.324Z,4456
2017-08-27T13:28:55.697Z,4452
2017-08-27T13:29:24.047Z,4444
2017-08-27T13:29:52.175Z,4436
2017-08-27T13:31:03.547Z,4424
2017-08-27T13:31:31.657Z,4424
2017-08-27T13:31:59.974Z,4420
2017-08-27T13:32:28.085Z,4408
2017-08-27T13:32:56.321Z,4404
2017-08-27T13:33:24.512Z,4400
2017-08-27T13:33:52.794Z,4400
2017-08-27T13:34:21.168Z,4400
2017-08-27T13:34:49.446Z,4396
2017-08-27T13:35:17.793Z,4396
2017-08-27T13:35:46.122Z,4396
2017-08-27T13:36:57.395Z,4396
2017-08-27T13:37:25.710Z,4392
2017-08-27T13:37:53.832Z,4384
2017-08-27T13:38:22.140Z,4376
2017-08-27T13:38:50.474Z,4368
2017-08-27T13:39:18.561Z,4360
2017-08-27T13:39:46.746Z,4360
2017-08-27T13:40:15.122Z,4356
2017-08-27T13:40:43.398Z,4348
2017-08-27T13:41:11.747Z,4340
2017-08-27T13:41:40.079Z,4328
2017-08-27T13:42:51.352Z,4316
2017-08-27T13:43:19.662Z,4308
2017-08-27T13:43:47.880Z,4312
2017-08-27T13:44:16.092Z,4312
2017-08-27T13:44:44.426Z,4304
2017-08-27T13:45:12.616Z,4304
2017-08-27T13:45:40.898Z,4300
2017-08-27T13:46:09.270Z,4304
2017-08-27T13:46:37.546Z,4300
2017-08-27T13:47:05.895Z,4296
2017-08-27T13:47:34.128Z,4300
2017-08-27T13:48:45.499Z,4292
2017-08-27T13:49:13.507Z,4292
2017-08-27T13:49:41.624Z,4292
2017-08-27T13:50:09.940Z,4300
2017-08-27T13:50:38.274Z,4300
2017-08-27T13:51:06.467Z,4304
2017-08-27T13:51:34.747Z,4300
2017-08-27T13:52:03.122Z,4304
2017-08-27T13:52:31.199Z,4304
2017-08-27T13:52:59.552Z,4304
2017-08-27T13:53:27.681Z,4312
2017-08-27T13:54:39.060Z,4324
2017-08-27T13:55:07.162Z,4328
2017-08-27T13:55:35.378Z,4336
2017-08-27T13:56:03.589Z,4336
2017-08-27T13:56:31.926Z,4340
2017-08-27T13:57:00.213Z,4344
2017-08-27T13:57:28.289Z,4352
2017-08-27T13:57:56.461Z,4360
2017-08-27T13:58:24.835Z,4364
2017-08-27T13:58:53.190Z,4376
2017-08-27T13:59:21.519Z,4372
2017-08-27T14:00:32.890Z,4392
2017-08-27T14:01:00.998Z,4392
2017-08-27T14:01:29.216Z,4400
2017-08-27T14:01:57.525Z,4400
2017-08-27T14:02:25.761Z,4404
2017-08-27T14:02:53.851Z,4404
2017-08-27T14:03:22.034Z,4404
2017-08-27T14:03:50.200Z,4412
2017-08-27T14:04:18.373Z,4420
2017-08-27T14:04:46.726Z,4420
2017-08-27T14:05:15.057Z,4424
2017-08-27T14:06:26.331Z,4440
2017-08-27T14:06:54.643Z,4440
2017-08-27T14:07:22.963Z,4440
2017-08-27T14:07:51.072Z,4448
2017-08-27T14:08:19.311Z,4456
2017-08-27T14:08:47.393Z,4464
2017-08-27T14:09:15.662Z,4468
2017-08-27T14:09:44.037Z,4468
2017-08-27T14:10:12.303Z,4476
2017-08-27T14:10:40.652Z,4488
2017-08-27T14:11:08.781Z,4492
2017-08-27T14:12:20.155Z,4524
2017-08-27T14:12:48.269Z,4528
2017-08-27T14:13:16.483Z,4536
2017-08-27T14:13:44.794Z,4548
2017-08-27T14:14:12.833Z,4564
2017-08-27T14:14:41.564Z,4580
2017-08-27T14:15:09.745Z,4592
2017-08-27T14:15:37.916Z,4600
2017-08-27T14:16:06.296Z,4616
2017-08-27T14:16:34.650Z,4632
2017-08-27T14:17:02.883Z,4644
2017-08-27T14:18:14.260Z,4680
2017-08-27T14:18:42.462Z,4700
2017-08-27T14:19:10.783Z,4716
2017-08-27T14:19:38.992Z,4724
2017-08-27T14:20:07.326Z,4744
2017-08-27T14:20:35.514Z,4744
2017-08-27T14:21:04.128Z,4752
2017-08-27T14:21:32.373Z,4768
2017-08-27T14:22:00.663Z,4776
2017-08-27T14:22:28.826Z,4788
2017-08-27T14:22:57.227Z,4792
2017-08-27T14:24:08.509Z,4816
2017-08-27T14:24:36.855Z,4828
2017-08-27T14:25:05.124Z,4836
2017-08-27T14:25:33.308Z,4852
2017-08-27T14:26:01.679Z,4860
2017-08-27T14:26:29.937Z,4868
2017-08-27T14:26:58.052Z,4880
2017-08-27T14:27:26.286Z,4888
2017-08-27T14:27:54.677Z,4888
2017-08-27T14:28:22.946Z,4896
2017-08-27T14:28:51.237Z,4900
2017-08-27T14:30:02.631Z,4912
2017-08-27T14:30:30.989Z,4912
2017-08-27T14:30:59.276Z,4920
2017-08-27T14:31:27.572Z,4924
2017-08-27T14:31:55.871Z,4928
2017-08-27T14:32:24.144Z,4932
2017-08-27T14:32:52.413Z,4940
2017-08-27T14:33:20.726Z,4940
2017-08-27T14:33:49.051Z,4944
2017-08-27T14:34:17.316Z,4952
2017-08-27T14:34:45.504Z,4960
2017-08-27T14:35:56.597Z,4980
2017-08-27T14:36:24.842Z,4984
2017-08-27T14:36:53.228Z,4996
2017-08-27T14:37:21.528Z,5000
2017-08-27T14:37:49.829Z,5004
2017-08-27T14:38:18.005Z,5012
2017-08-27T14:38:46.179Z,5016
2017-08-27T14:39:14.394Z,5024
2017-08-27T14:39:42.719Z,5028
2017-08-27T14:40:10.985Z,5028
2017-08-27T14:40:39.171Z,5032
2017-08-27T14:41:50.364Z,5044
2017-08-27T14:42:18.622Z,5052
2017-08-27T14:42:47.006Z,5052
2017-08-27T14:43:15.183Z,5052
2017-08-27T14:43:43.368Z,5052
2017-08-27T14:44:11.439Z,5068
2017-08-27T14:44:39.580Z,5068
2017-08-27T14:45:07.758Z,5076
2017-08-27T14:45:35.930Z,5080
2017-08-27T14:46:04.075Z,5084
2017-08-27T14:46:32.255Z,5080
2017-08-27T14:47:43.567Z,5088
2017-08-27T14:48:11.926Z,5100
2017-08-27T14:48:40.110Z,5096
2017-08-27T14:49:08.406Z,5104
2017-08-27T14:49:36.706Z,5100
2017-08-27T14:50:04.775Z,5108
2017-08-27T14:50:33.144Z,5104
2017-08-27T14:51:01.217Z,5104
2017-08-27T14:51:29.416Z,5116
2017-08-27T14:51:57.579Z,5108
2017-08-27T14:52:26.207Z,5112
2017-08-27T14:53:37.519Z,5092
2017-08-27T14:54:05.868Z,5096
2017-08-27T14:54:34.130Z,5092
2017-08-27T14:55:02.287Z,5088
2017-08-27T14:55:30.581Z,5084
2017-08-27T14:55:58.837Z,5080
2017-08-27T14:56:27.190Z,5076
2017-08-27T14:56:55.446Z,5080
2017-08-27T14:57:23.597Z,5080
2017-08-27T14:57:51.550Z,5092
2017-08-27T14:58:19.585Z,5092
2017-08-27T14:59:30.739Z,5092
2017-08-27T14:59:59.043Z,5096
2017-08-27T15:00:27.280Z,5092
2017-08-27T15:00:55.395Z,5096
2017-08-27T15:01:23.618Z,5096
2017-08-27T15:01:51.909Z,5096
2017-08-27T15:02:20.185Z,5096
2017-08-27T15:02:48.440Z,5092
2017-08-27T15:03:16.683Z,5096
2017-08-27T15:03:44.933Z,5076
2017-08-27T15:04:13.152Z,5076
2017-08-27T15:05:24.434Z,5084
2017-08-27T15:05:52.637Z,5080
2017-08-27T15:06:20.877Z,5084
2017-08-27T15:06:48.996Z,5088
2017-08-27T15:07:17.027Z,5084
2017-08-27T15:07:45.216Z,5088
2017-08-27T15:08:13.489Z,5088
2017-08-27T15:08:41.749Z,5080
2017-08-27T15:09:10.097Z,5080
2017-08-27T15:09:38.439Z,5076
2017-08-27T15:10:06.656Z,5076
2017-08-27T15:11:17.840Z,5076
2017-08-27T15:11:46.043Z,5072
2017-08-27T15:12:14.179Z,5080
2017-08-27T15:12:42.196Z,5076
2017-08-27T15:13:10.526Z,5072
2017-08-27T15:13:38.715Z,5080
2017-08-27T15:14:06.788Z,5068
2017-08-27T15:14:34.944Z,5064
2017-08-27T15:15:03.192Z,5064
2017-08-27T15:15:31.447Z,5056
2017-08-27T15:15:59.751Z,5064
2017-08-27T15:17:11.126Z,5048
2017-08-27T15:17:39.135Z,5048
2017-08-27T15:18:07.352Z,5044
2017-08-27T15:18:35.570Z,5032
2017-08-27T15:19:03.873Z,5036
2017-08-27T15:19:32.115Z,5044
2017-08-27T15:20:00.352Z,5052
2017-08-27T15:20:28.657Z,5044
2017-08-27T15:20:56.970Z,5064
2017-08-27T15:21:25.264Z,5052
2017-08-27T15:21:53.528Z,5052
2017-08-27T15:23:04.846Z,5048
2017-08-27T15:23:33.112Z,5032
2017-08-27T15:24:01.419Z,5032
2017-08-27T15:24:29.711Z,5016
2017-08-27T15:24:57.894Z,5012
2017-08-27T15:25:26.181Z,5008
2017-08-27T15:25:54.441Z,5012
2017-08-27T15:26:22.650Z,5004
2017-08-27T15:26:50.879Z,5008
2017-08-27T15:27:19.072Z,5004
2017-08-27T15:27:47.332Z,5004
2017-08-27T15:28:58.673Z,4996
2017-08-27T15:29:26.955Z,5004
2017-08-27T15:29:55.173Z,5000
2017-08-27T15:30:23.373Z,5000
2017-08-27T15:30:51.397Z,5004
2017-08-27T15:31:19.589Z,5008
2017-08-27T15:31:47.782Z,5008
2017-08-27T15:32:16.128Z,5004
2017-08-27T15:32:44.475Z,5008
2017-08-27T15:33:12.796Z,5008
2017-08-27T15:33:41.105Z,4992
2017-08-27T15:34:52.486Z,4968
2017-08-27T15:35:20.695Z,4960
2017-08-27T15:35:48.865Z,4960
2017-08-27T15:36:17.199Z,4968
2017-08-27T15:36:45.532Z,4968
2017-08-27T15:37:13.867Z,4968
2017-08-27T15:37:42.072Z,4968
2017-08-27T15:38:10.432Z,4960
2017-08-27T15:38:38.792Z,4956
2017-08-27T15:39:07.149Z,4956
2017-08-27T15:39:35.463Z,4952
2017-08-27T15:40:46.840Z,4960
2017-08-27T15:41:15.031Z,4956
2017-08-27T15:41:43.250Z,4952
2017-08-27T15:42:11.477Z,4948
2017-08-27T15:42:39.618Z,4940
2017-08-27T15:43:07.833Z,4932
2017-08-27T15:43:36.032Z,4928
2017-08-27T15:44:04.403Z,4920
2017-08-27T15:44:32.643Z,4912
2017-08-27T15:45:00.994Z,4908
2017-08-27T15:45:29.330Z,4904
2017-08-27T15:46:40.507Z,4892
2017-08-27T15:47:08.817Z,4884
2017-08-27T15:47:36.997Z,4884
2017-08-27T15:48:05.274Z,4884
2017-08-27T15:48:33.580Z,4876
2017-08-27T15:49:01.717Z,4868
2017-08-27T15:49:29.951Z,4860
2017-08-27T15:49:58.301Z,4860
2017-08-27T15:50:26.505Z,4856
2017-08-27T15:50:54.762Z,4848
2017-08-27T15:51:23.096Z,4844
2017-08-27T15:52:34.476Z,4836
2017-08-27T15:53:02.787Z,4848
2017-08-27T15:53:31.024Z,4836
2017-08-27T15:53:59.248Z,4828
2017-08-27T15:54:27.585Z,4824
2017-08-27T15:54:55.880Z,4820
2017-08-27T16:01:33.254Z,4728
2017-08-27T16:02:01.987Z,4716
2017-08-27T16:02:30.545Z,4716
2017-08-27T16:02:58.789Z,4708
2017-08-27T16:03:27.027Z,4704
2017-08-27T16:03:55.650Z,4704
2017-08-27T16:04:23.775Z,4692
2017-08-27T16:04:52.105Z,4684
2017-08-27T16:05:20.141Z,4672
2017-08-27T16:05:48.449Z,4664
2017-08-27T16:06:16.808Z,4644
2017-08-27T16:07:39.461Z,4580
2017-08-27T16:08:07.808Z,4556
2017-08-27T16:08:36.034Z,4540
2017-08-27T16:09:04.169Z,4524
2017-08-27T16:09:32.492Z,4512
2017-08-27T16:10:00.835Z,4504
2017-08-27T16:10:28.938Z,4496
2017-08-27T16:10:57.095Z,4492
2017-08-27T16:11:25.410Z,4484
2017-08-27T16:11:53.693Z,4476
2017-08-27T16:12:21.878Z,4468
2017-08-27T16:13:33.184Z,4436
2017-08-27T16:14:01.534Z,4424
2017-08-27T16:14:29.852Z,4408
2017-08-27T16:14:58.174Z,4392
2017-08-27T16:15:26.388Z,4388
2017-08-27T16:15:54.726Z,4364
2017-08-27T16:16:22.820Z,4352
2017-08-27T16:16:51.080Z,4360
2017-08-27T16:17:19.399Z,4332
2017-08-27T16:17:47.684Z,4320
2017-08-27T16:18:15.865Z,4304
2017-08-27T16:19:27.262Z,4280
2017-08-27T16:19:55.614Z,4260
2017-08-27T16:20:23.934Z,4260
2017-08-27T16:20:52.061Z,4252
2017-08-27T16:21:20.386Z,4240
2017-08-27T16:21:48.624Z,4240
2017-08-27T16:22:16.723Z,4228
2017-08-27T16:22:44.877Z,4224
2017-08-27T16:23:13.194Z,4216
2017-08-27T16:23:41.364Z,4212
2017-08-27T16:24:09.540Z,4204
2017-08-27T16:25:20.840Z,4192
2017-08-27T16:25:49.195Z,4176
2017-08-27T16:26:17.322Z,4172
2017-08-27T16:26:45.642Z,4164
2017-08-27T16:27:13.783Z,4156
2017-08-27T16:27:41.994Z,4148
2017-08-27T16:28:10.260Z,4144
2017-08-27T16:28:38.518Z,4140
2017-08-27T16:29:06.731Z,4140
2017-08-27T16:29:35.013Z,4132
2017-08-27T16:30:03.378Z,4124
2017-08-27T16:31:14.672Z,4124
2017-08-27T16:31:43.011Z,4116
2017-08-27T16:32:11.333Z,4116
2017-08-27T16:32:39.459Z,4112
2017-08-27T16:33:07.662Z,4108
2017-08-27T16:33:35.897Z,4104
2017-08-27T16:34:04.184Z,4088
2017-08-27T16:34:32.408Z,4088
2017-08-27T16:35:00.668Z,4080
2017-08-27T16:35:28.846Z,4072
2017-08-27T16:35:57.182Z,4064
2017-08-27T16:37:08.463Z,4036
2017-08-27T16:37:36.618Z,4020
2017-08-27T16:38:04.930Z,4004
2017-08-27T16:38:33.113Z,3988
2017-08-27T16:39:01.296Z,3980
2017-08-27T16:39:29.485Z,3968
2017-08-27T16:39:57.662Z,3952
2017-08-27T16:40:25.920Z,3936
2017-08-27T16:40:54.228Z,3920
2017-08-27T16:41:22.417Z,3908
2017-08-27T16:41:50.799Z,3888
2017-08-27T16:43:02.108Z,3852